Time;durP1;ratioP1;P1;durP2;ratioP2;P2;SDS_P1;SDS_P2;PMS_P1;PMS_P2;Temp;Humidity;BMP_temperature;BMP_pressure;BME280_temperature;BME280_humidity;BME280_pressure;Samples;Min_cycle;Max_cycle;Signal;HPM_P1;HPM_P2
2022/05/20 00:00:43;;;;;;;179.30;40.85;;;;;;;;;;4992242;28;20291;-49
2022/05/20 00:03:09;;;;;;;233.00;47.92;;;;;;;;;;4998005;28;20220;-49
2022/05/20 00:05:36;;;;;;;167.20;37.95;;;;;;;;;;4999434;28;20211;-49
2022/05/20 00:08:01;;;;;;;208.43;42.58;;;;;;;;;;4994601;28;20201;-49
2022/05/20 00:10:28;;;;;;;179.77;39.65;;;;;;;;;;4992213;28;20235;-49
2022/05/20 00:12:54;;;;;;;193.10;42.53;;;;;;;;;;4995418;28;20216;-48
2022/05/20 00:15:21;;;;;;;169.20;37.60;;;;;;;;;;4994918;28;20216;-49
2022/05/20 00:17:48;;;;;;;153.57;34.53;;;;;;;;;;5000452;28;20208;-49
2022/05/20 00:20:14;;;;;;;193.52;41.95;;;;;;;;;;4991580;28;20184;-49
2022/05/20 00:22:40;;;;;;;165.50;37.85;;;;;;;;;;5000737;28;20747;-49
2022/05/20 00:27:52;;;;;;;158.07;36.30;;;;;;;;;;4989100;28;20399;-48
2022/05/20 00:30:18;;;;;;;162.73;36.80;;;;;;;;;;4990579;28;20771;-49
2022/05/20 00:32:43;;;;;;;183.65;41.35;;;;;;;;;;5005198;28;20197;-49
2022/05/20 00:35:10;;;;;;;189.85;41.75;;;;;;;;;;4988260;28;20299;-49
2022/05/20 00:37:36;;;;;;;164.98;36.75;;;;;;;;;;4997933;28;20716;-49
2022/05/20 00:40:03;;;;;;;139.73;33.10;;;;;;;;;;5001059;28;20220;-49
2022/05/20 00:42:29;;;;;;;165.43;37.40;;;;;;;;;;4993228;28;20255;-49
2022/05/20 00:44:55;;;;;;;209.25;46.53;;;;;;;;;;4998515;28;20213;-49
2022/05/20 00:47:21;;;;;;;142.88;33.30;;;;;;;;;;4995972;28;20212;-49
2022/05/20 00:49:50;;;;;;;127.72;31.35;;;;;;;;;;4999156;28;20228;-49
2022/05/20 00:52:18;;;;;;;157.38;34.05;;;;;;;;;;4997547;28;20212;-50
2022/05/20 00:54:45;;;;;;;260.02;52.53;;;;;;;;;;4989593;28;20811;-49
2022/05/20 00:57:11;;;;;;;129.02;29.25;;;;;;;;;;4996904;28;20228;-49
2022/05/20 00:59:41;;;;;;;150.82;34.38;;;;;;;;;;5013170;28;20649;-49
2022/05/20 01:02:11;;;;;;;240.23;53.25;;;;;;;;;;4994293;28;20642;-49
2022/05/20 01:04:38;;;;;;;164.23;36.08;;;;;;;;;;4999655;28;20706;-48
2022/05/20 01:07:05;;;;;;;111.70;30.45;;;;;;;;;;4995918;28;20506;-49
2022/05/20 01:09:31;;;;;;;145.38;35.97;;;;;;;;;;4996368;28;20807;-49
2022/05/20 01:11:57;;;;;;;145.52;38.30;;;;;;;;;;4998145;28;20239;-49
2022/05/20 01:14:25;;;;;;;166.00;36.90;;;;;;;;;;4995633;28;20268;-48
2022/05/20 01:16:51;;;;;;;119.85;31.20;;;;;;;;;;4994059;28;20217;-48
2022/05/20 01:19:20;;;;;;;209.90;49.42;;;;;;;;;;4994864;28;20220;-49
2022/05/20 01:21:46;;;;;;;152.35;34.75;;;;;;;;;;5000941;28;20220;-48
2022/05/20 01:24:12;;;;;;;194.30;41.13;;;;;;;;;;5000636;28;20213;-48
2022/05/20 01:26:38;;;;;;;86.32;23.92;;;;;;;;;;4998660;28;20231;-49
2022/05/20 01:29:04;;;;;;;169.00;44.10;;;;;;;;;;5000197;28;20299;-48
2022/05/20 01:31:30;;;;;;;120.07;31.02;;;;;;;;;;5005048;28;20224;-49
2022/05/20 01:33:56;;;;;;;179.68;40.15;;;;;;;;;;5000063;28;20213;-49
2022/05/20 01:36:23;;;;;;;164.85;36.13;;;;;;;;;;5003901;28;20232;-49
2022/05/20 01:38:50;;;;;;;182.07;37.65;;;;;;;;;;5001128;28;20279;-48
2022/05/20 01:41:21;;;;;;;192.32;42.13;;;;;;;;;;4993168;28;20250;-49
2022/05/20 01:43:53;;;;;;;109.25;28.15;;;;;;;;;;4998846;28;20337;-48
2022/05/20 01:46:42;;;;;;;141.73;34.00;;;;;;;;;;4991785;28;20677;-49
2022/05/20 01:49:13;;;;;;;146.48;36.15;;;;;;;;;;5002799;28;20307;-49
2022/05/20 01:51:52;;;;;;;142.00;33.55;;;;;;;;;;5001726;28;20223;-49
2022/05/20 01:54:22;;;;;;;180.18;38.78;;;;;;;;;;4997448;28;20242;-48
2022/05/20 01:56:50;;;;;;;168.63;41.53;;;;;;;;;;4992676;28;20724;-48
2022/05/20 01:59:20;;;;;;;166.18;39.70;;;;;;;;;;5007571;28;20200;-48
2022/05/20 02:01:54;;;;;;;107.45;27.60;;;;;;;;;;5008633;28;20217;-48
2022/05/20 02:04:22;;;;;;;170.32;36.55;;;;;;;;;;5004532;28;20329;-49
2022/05/20 02:06:52;;;;;;;142.15;35.55;;;;;;;;;;5003629;28;20221;-49
2022/05/20 02:09:21;;;;;;;216.48;41.85;;;;;;;;;;4994103;28;20271;-49
2022/05/20 02:11:51;;;;;;;162.65;35.90;;;;;;;;;;4995260;28;20191;-49
2022/05/20 02:14:20;;;;;;;167.23;35.45;;;;;;;;;;5005077;28;20256;-49
2022/05/20 02:16:50;;;;;;;143.65;34.55;;;;;;;;;;5001678;28;20894;-48
2022/05/20 02:19:26;;;;;;;259.25;51.58;;;;;;;;;;5005652;28;20354;-49
2022/05/20 02:21:54;;;;;;;228.93;45.22;;;;;;;;;;4993206;28;20624;-49
2022/05/20 02:24:22;;;;;;;179.25;38.33;;;;;;;;;;4996363;28;20277;-49
2022/05/20 02:26:50;;;;;;;117.55;29.98;;;;;;;;;;5002406;28;20569;-48
2022/05/20 02:29:19;;;;;;;120.90;29.98;;;;;;;;;;5010306;28;20180;-48
2022/05/20 02:31:45;;;;;;;163.68;35.00;;;;;;;;;;5002856;28;20232;-49
2022/05/20 02:34:11;;;;;;;173.63;36.85;;;;;;;;;;4999220;28;20577;-49
2022/05/20 02:36:37;;;;;;;174.63;37.97;;;;;;;;;;4996448;28;20234;-49
2022/05/20 02:39:06;;;;;;;187.80;38.95;;;;;;;;;;4991098;28;20235;-49
2022/05/20 02:41:32;;;;;;;122.80;28.83;;;;;;;;;;5000816;28;20185;-49
2022/05/20 02:43:58;;;;;;;138.60;31.33;;;;;;;;;;5007222;28;20221;-49
2022/05/20 02:46:25;;;;;;;148.15;31.58;;;;;;;;;;4996969;28;20227;-49
2022/05/20 02:48:51;;;;;;;147.43;34.72;;;;;;;;;;4999268;28;20442;-49
2022/05/20 02:51:17;;;;;;;173.02;35.33;;;;;;;;;;5002696;28;20271;-49
2022/05/20 02:53:44;;;;;;;75.40;20.63;;;;;;;;;;5001189;28;20180;-49
2022/05/20 02:56:10;;;;;;;160.40;35.47;;;;;;;;;;4998968;28;20240;-49
2022/05/20 03:04:12;;;;;;;135.43;30.17;;;;;;;;;;5002511;28;20684;-49
2022/05/20 03:06:39;;;;;;;170.48;39.35;;;;;;;;;;5000795;28;20346;-49
2022/05/20 03:09:06;;;;;;;256.90;51.35;;;;;;;;;;4993179;28;20223;-49
2022/05/20 03:11:32;;;;;;;172.73;36.80;;;;;;;;;;5003913;28;20224;-49
2022/05/20 03:13:58;;;;;;;177.07;39.33;;;;;;;;;;4996000;28;20208;-48
2022/05/20 03:16:23;;;;;;;213.13;45.22;;;;;;;;;;4996242;28;20220;-49
2022/05/20 03:18:49;;;;;;;133.07;33.10;;;;;;;;;;5000888;28;20330;-48
2022/05/20 03:21:15;;;;;;;143.43;34.53;;;;;;;;;;4997316;28;20224;-48
2022/05/20 03:23:41;;;;;;;162.20;37.33;;;;;;;;;;5003887;28;20181;-49
2022/05/20 03:26:07;;;;;;;122.13;29.42;;;;;;;;;;4997150;28;20286;-48
2022/05/20 03:28:34;;;;;;;180.85;41.03;;;;;;;;;;4996340;28;20240;-49
2022/05/20 03:31:09;;;;;;;157.25;38.15;;;;;;;;;;5002242;28;20217;-49
2022/05/20 03:33:35;;;;;;;93.63;23.95;;;;;;;;;;5001387;28;20263;-49
2022/05/20 03:36:01;;;;;;;201.25;45.47;;;;;;;;;;4999205;28;20334;-49
2022/05/20 03:38:27;;;;;;;171.77;40.47;;;;;;;;;;5000175;28;20312;-48
2022/05/20 03:40:53;;;;;;;191.20;44.40;;;;;;;;;;5001020;28;20320;-48
2022/05/20 03:43:19;;;;;;;154.60;37.83;;;;;;;;;;5000183;28;20230;-48
2022/05/20 03:45:45;;;;;;;203.25;45.72;;;;;;;;;;5000011;28;20266;-49
2022/05/20 03:48:11;;;;;;;206.65;46.38;;;;;;;;;;4993533;28;20223;-49
2022/05/20 03:50:37;;;;;;;165.45;39.85;;;;;;;;;;5001716;28;20266;-49
2022/05/20 03:53:04;;;;;;;123.70;30.13;;;;;;;;;;5002141;28;21705;-48
2022/05/20 03:55:30;;;;;;;179.57;42.75;;;;;;;;;;5004448;28;20576;-49
2022/05/20 03:57:56;;;;;;;157.90;36.88;;;;;;;;;;4996165;28;20209;-49
2022/05/20 04:00:22;;;;;;;124.10;30.80;;;;;;;;;;5000724;28;20271;-51
2022/05/20 04:02:48;;;;;;;380.63;87.10;;;;;;;;;;4991918;28;20821;-51
2022/05/20 04:05:14;;;;;;;81.65;20.50;;;;;;;;;;5002193;28;20571;-51
2022/05/20 04:07:40;;;;;;;81.95;21.25;;;;;;;;;;4999517;28;20466;-50
2022/05/20 04:10:09;;;;;;;151.52;35.80;;;;;;;;;;4994146;28;20569;-50
2022/05/20 04:12:37;;;;;;;167.75;40.50;;;;;;;;;;4996346;28;20227;-50
2022/05/20 04:15:05;;;;;;;189.52;45.50;;;;;;;;;;4994158;28;20216;-51
2022/05/20 04:17:31;;;;;;;194.00;46.33;;;;;;;;;;5005206;28;20289;-51
2022/05/20 04:19:57;;;;;;;133.45;33.58;;;;;;;;;;4996564;28;20319;-50
2022/05/20 04:22:31;;;;;;;140.68;35.50;;;;;;;;;;5001767;28;20307;-50
2022/05/20 04:24:57;;;;;;;129.68;32.00;;;;;;;;;;5001456;28;20242;-51
2022/05/20 04:27:24;;;;;;;242.18;58.35;;;;;;;;;;4997355;28;20223;-51
2022/05/20 04:29:50;;;;;;;145.10;37.65;;;;;;;;;;4994390;28;20474;-50
2022/05/20 04:32:16;;;;;;;161.07;39.25;;;;;;;;;;5006259;28;20221;-50
2022/05/20 04:34:42;;;;;;;141.30;35.50;;;;;;;;;;5007742;28;20699;-50
2022/05/20 04:37:08;;;;;;;150.63;37.13;;;;;;;;;;4997762;28;20231;-50
2022/05/20 04:39:35;;;;;;;169.73;41.35;;;;;;;;;;4997937;28;20223;-51
2022/05/20 04:47:32;;;;;;;162.55;38.95;;;;;;;;;;4996478;28;20266;-50
2022/05/20 04:49:58;;;;;;;161.60;39.08;;;;;;;;;;5000384;28;20216;-50
2022/05/20 04:52:24;;;;;;;169.07;41.10;;;;;;;;;;4998986;28;20278;-50
2022/05/20 04:54:50;;;;;;;193.45;45.95;;;;;;;;;;5001273;28;20633;-50
2022/05/20 04:57:25;;;;;;;181.40;43.03;;;;;;;;;;4993528;28;20352;-51
2022/05/20 04:59:51;;;;;;;118.57;31.67;;;;;;;;;;4998123;28;20173;-50
2022/05/20 05:02:17;;;;;;;182.27;44.70;;;;;;;;;;4995880;28;20276;-51
2022/05/20 05:04:43;;;;;;;161.50;38.75;;;;;;;;;;4990084;28;20239;-50
2022/05/20 05:07:10;;;;;;;98.45;26.55;;;;;;;;;;5007056;28;20220;-51
2022/05/20 05:09:39;;;;;;;169.68;40.67;;;;;;;;;;5005075;28;20301;-49
2022/05/20 05:12:06;;;;;;;134.77;33.75;;;;;;;;;;5000561;28;20530;-50
2022/05/20 05:14:36;;;;;;;101.40;26.88;;;;;;;;;;5004284;28;20196;-50
2022/05/20 05:17:03;;;;;;;112.47;28.60;;;;;;;;;;4999005;28;20300;-50
2022/05/20 05:19:29;;;;;;;123.25;31.20;;;;;;;;;;5000770;28;20217;-52
2022/05/20 05:21:55;;;;;;;116.22;30.85;;;;;;;;;;5005132;28;20212;-50
2022/05/20 05:24:21;;;;;;;154.60;36.80;;;;;;;;;;5006950;28;20547;-52
2022/05/20 05:26:47;;;;;;;171.10;40.95;;;;;;;;;;5003781;28;20243;-51
2022/05/20 05:29:13;;;;;;;257.75;56.72;;;;;;;;;;4975610;28;20199;-51
2022/05/20 05:31:39;;;;;;;154.05;33.22;;;;;;;;;;4994653;28;20539;-52
2022/05/20 05:34:05;;;;;;;168.77;34.70;;;;;;;;;;5002817;28;20235;-51
2022/05/20 05:36:31;;;;;;;136.77;31.85;;;;;;;;;;4997251;28;20216;-51
2022/05/20 05:38:57;;;;;;;204.30;44.60;;;;;;;;;;4998964;28;20501;-52
2022/05/20 05:41:23;;;;;;;156.93;36.17;;;;;;;;;;4997828;28;20267;-50
2022/05/20 05:43:49;;;;;;;164.73;37.33;;;;;;;;;;5001821;28;20595;-51
2022/05/20 05:46:15;;;;;;;291.90;54.95;;;;;;;;;;4989977;28;20208;-50
2022/05/20 05:48:41;;;;;;;93.38;27.10;;;;;;;;;;4998082;28;20554;-50
2022/05/20 05:51:08;;;;;;;177.85;44.35;;;;;;;;;;4999757;28;20212;-51
2022/05/20 05:53:34;;;;;;;165.45;44.55;;;;;;;;;;5000379;28;20636;-51
2022/05/20 05:56:01;;;;;;;140.32;36.78;;;;;;;;;;4999323;28;20478;-51
2022/05/20 05:58:28;;;;;;;111.38;31.20;;;;;;;;;;5003961;28;20217;-51
2022/05/20 06:00:54;;;;;;;123.10;32.35;;;;;;;;;;5003133;28;20213;-52
2022/05/20 06:03:21;;;;;;;289.48;68.30;;;;;;;;;;4995013;28;20490;-52
2022/05/20 06:05:47;;;;;;;142.57;37.35;;;;;;;;;;4995367;28;20196;-52
2022/05/20 06:08:13;;;;;;;99.95;26.33;;;;;;;;;;5007685;28;20637;-50
2022/05/20 06:10:39;;;;;;;156.38;40.38;;;;;;;;;;4992438;28;20424;-50
2022/05/20 06:13:05;;;;;;;173.88;38.83;;;;;;;;;;4996289;28;20323;-50
2022/05/20 06:15:31;;;;;;;184.80;41.60;;;;;;;;;;4997002;28;20553;-50
2022/05/20 06:17:57;;;;;;;212.68;45.70;;;;;;;;;;4996901;28;20289;-52
2022/05/20 06:20:24;;;;;;;189.23;45.47;;;;;;;;;;4998976;28;20199;-51
2022/05/20 06:22:50;;;;;;;187.02;41.75;;;;;;;;;;5000561;28;20800;-52
2022/05/20 06:25:16;;;;;;;137.88;34.00;;;;;;;;;;5008888;28;20282;-51
2022/05/20 06:27:43;;;;;;;80.63;24.33;;;;;;;;;;5009668;28;20217;-51
2022/05/20 06:30:10;;;;;;;102.50;26.90;;;;;;;;;;5005974;28;20795;-51
2022/05/20 06:32:36;;;;;;;140.70;38.58;;;;;;;;;;5003616;28;20197;-51
2022/05/20 06:40:44;;;;;;;149.77;40.28;;;;;;;;;;5010014;28;20228;-52
2022/05/20 06:43:10;;;;;;;177.73;46.17;;;;;;;;;;5004441;28;20623;-51
2022/05/20 06:45:36;;;;;;;169.80;42.15;;;;;;;;;;5000775;28;22433;-51
2022/05/20 06:48:02;;;;;;;126.13;37.38;;;;;;;;;;5009051;28;20541;-52
2022/05/20 06:50:28;;;;;;;107.95;30.73;;;;;;;;;;5012321;28;20184;-51
2022/05/20 06:52:54;;;;;;;105.07;29.83;;;;;;;;;;5004116;28;20216;-52
2022/05/20 06:55:20;;;;;;;191.80;46.47;;;;;;;;;;4995833;28;20335;-52
2022/05/20 06:57:46;;;;;;;180.57;42.38;;;;;;;;;;5002833;28;20221;-51
2022/05/20 07:00:12;;;;;;;331.98;71.25;;;;;;;;;;4992325;28;20698;-52
2022/05/20 07:02:39;;;;;;;185.48;42.90;;;;;;;;;;4993537;28;20272;-51
2022/05/20 07:05:06;;;;;;;149.35;35.72;;;;;;;;;;5000770;28;20208;-52
2022/05/20 07:07:32;;;;;;;143.77;40.20;;;;;;;;;;5002536;28;20220;-51
2022/05/20 07:09:58;;;;;;;145.00;39.63;;;;;;;;;;5001526;28;20689;-51
2022/05/20 07:12:24;;;;;;;157.40;43.75;;;;;;;;;;5007918;28;20257;-50
2022/05/20 07:14:50;;;;;;;138.18;39.17;;;;;;;;;;4999212;28;20260;-51
2022/05/20 07:17:17;;;;;;;102.03;31.13;;;;;;;;;;5013127;28;20645;-51
2022/05/20 07:19:43;;;;;;;77.55;26.25;;;;;;;;;;5010350;28;20227;-51
2022/05/20 07:22:09;;;;;;;160.70;44.72;;;;;;;;;;5002862;28;20295;-51
2022/05/20 07:24:35;;;;;;;101.70;31.48;;;;;;;;;;5012772;28;20209;-50
2022/05/20 07:27:01;;;;;;;173.15;46.15;;;;;;;;;;4999313;28;20224;-51
2022/05/20 07:29:27;;;;;;;110.07;35.40;;;;;;;;;;4999534;28;20229;-51
2022/05/20 07:31:53;;;;;;;164.73;46.20;;;;;;;;;;5007984;28;20592;-51
2022/05/20 07:34:19;;;;;;;106.38;33.25;;;;;;;;;;5012704;28;21558;-51
2022/05/20 07:36:45;;;;;;;166.23;46.53;;;;;;;;;;5004929;28;20224;-52
2022/05/20 07:39:11;;;;;;;137.43;39.72;;;;;;;;;;4995722;28;20622;-52
2022/05/20 07:41:37;;;;;;;70.68;24.50;;;;;;;;;;5008783;28;20262;-51
2022/05/20 07:44:03;;;;;;;164.60;45.92;;;;;;;;;;4997977;28;20240;-51
2022/05/20 07:46:29;;;;;;;100.43;31.02;;;;;;;;;;5005697;28;20213;-51
2022/05/20 07:48:55;;;;;;;107.63;33.95;;;;;;;;;;5008978;28;20227;-51
2022/05/20 07:51:22;;;;;;;134.68;40.13;;;;;;;;;;4999783;28;21851;-51
2022/05/20 07:53:54;;;;;;;82.55;28.02;;;;;;;;;;5000981;28;20356;-51
2022/05/20 07:56:24;;;;;;;122.30;37.78;;;;;;;;;;5011836;28;20188;-51
2022/05/20 07:58:51;;;;;;;84.82;27.95;;;;;;;;;;5005449;28;20216;-51
2022/05/20 08:01:18;;;;;;;124.40;36.97;;;;;;;;;;5010667;28;20213;-51
2022/05/20 08:06:29;;;;;;;98.43;30.67;;;;;;;;;;5010332;28;20782;-51
2022/05/20 08:08:56;;;;;;;172.27;49.10;;;;;;;;;;5005569;28;20635;-52
2022/05/20 08:11:22;;;;;;;91.82;30.15;;;;;;;;;;5005021;28;20232;-51
2022/05/20 08:13:50;;;;;;;119.80;35.53;;;;;;;;;;5001635;28;20224;-51
2022/05/20 08:16:16;;;;;;;147.60;42.45;;;;;;;;;;5001087;28;20587;-52
2022/05/20 08:18:42;;;;;;;186.98;50.65;;;;;;;;;;5007766;28;20229;-51
2022/05/20 08:21:08;;;;;;;217.38;62.03;;;;;;;;;;4998880;28;20223;-51
2022/05/20 08:23:33;;;;;;;149.52;44.80;;;;;;;;;;4998084;28;20192;-51
2022/05/20 08:25:59;;;;;;;155.25;43.60;;;;;;;;;;5002263;28;20212;-52
2022/05/20 08:28:25;;;;;;;117.90;34.35;;;;;;;;;;5005205;28;20458;-52
2022/05/20 08:30:51;;;;;;;96.38;30.58;;;;;;;;;;5014953;28;20230;-51
2022/05/20 08:33:17;;;;;;;96.07;29.08;;;;;;;;;;5005140;28;20216;-51
2022/05/20 08:35:43;;;;;;;99.80;31.88;;;;;;;;;;5011295;28;20240;-51
2022/05/20 08:38:09;;;;;;;131.15;40.50;;;;;;;;;;5013178;28;20322;-51
2022/05/20 08:40:42;;;;;;;148.35;42.38;;;;;;;;;;4998765;28;20224;-51
2022/05/20 08:43:09;;;;;;;143.68;41.20;;;;;;;;;;4998301;28;20410;-50
2022/05/20 08:45:35;;;;;;;95.30;34.65;;;;;;;;;;5011287;28;20213;-51
2022/05/20 08:48:04;;;;;;;97.15;32.75;;;;;;;;;;5004951;28;20576;-52
2022/05/20 08:50:36;;;;;;;97.50;30.88;;;;;;;;;;5007677;28;20208;-52
2022/05/20 08:53:02;;;;;;;160.77;42.17;;;;;;;;;;5007762;28;20613;-51
2022/05/20 08:55:28;;;;;;;235.63;54.97;;;;;;;;;;5002785;28;20705;-52
2022/05/20 08:57:56;;;;;;;134.65;37.85;;;;;;;;;;4995817;28;20212;-52
2022/05/20 09:00:22;;;;;;;176.73;44.38;;;;;;;;;;4997687;28;20282;-51
2022/05/20 09:02:48;;;;;;;177.57;45.55;;;;;;;;;;5001366;28;20205;-52
2022/05/20 09:05:25;;;;;;;153.50;43.17;;;;;;;;;;5006024;28;20189;-52
2022/05/20 09:07:59;;;;;;;91.78;29.95;;;;;;;;;;5008506;28;20411;-52
2022/05/20 09:10:29;;;;;;;131.13;37.55;;;;;;;;;;4999205;28;20215;-51
2022/05/20 09:13:05;;;;;;;96.60;30.88;;;;;;;;;;4998676;28;23767;-51
2022/05/20 09:15:43;;;;;;;119.95;36.55;;;;;;;;;;5001264;28;20510;-51
2022/05/20 09:18:09;;;;;;;137.93;38.10;;;;;;;;;;5000274;28;20673;-52
2022/05/20 09:20:41;;;;;;;167.85;44.25;;;;;;;;;;4996252;28;20323;-52
2022/05/20 09:23:07;;;;;;;184.07;53.13;;;;;;;;;;5001728;28;20518;-51
2022/05/20 09:25:36;;;;;;;153.18;45.78;;;;;;;;;;5011447;28;20230;-51
2022/05/20 09:28:14;;;;;;;97.68;32.45;;;;;;;;;;5000119;28;20223;-52
2022/05/20 09:30:48;;;;;;;127.10;37.97;;;;;;;;;;5009803;28;20234;-52
2022/05/20 09:33:22;;;;;;;139.82;41.60;;;;;;;;;;5011739;28;20923;-52
2022/05/20 09:35:56;;;;;;;140.68;42.25;;;;;;;;;;4997301;28;20223;-51
2022/05/20 09:38:33;;;;;;;126.55;39.75;;;;;;;;;;4998943;28;20642;-51
2022/05/20 09:40:59;;;;;;;96.25;35.00;;;;;;;;;;5010050;28;20314;-52
2022/05/20 09:43:32;;;;;;;132.00;40.30;;;;;;;;;;5008011;28;20211;-52
2022/05/20 09:45:59;;;;;;;150.88;46.60;;;;;;;;;;5004510;28;20216;-51
2022/05/20 09:48:46;;;;;;;127.85;39.13;;;;;;;;;;4996380;28;20289;-51
2022/05/20 09:51:13;;;;;;;147.05;45.38;;;;;;;;;;5012604;28;20228;-52
2022/05/20 09:53:41;;;;;;;122.10;42.40;;;;;;;;;;5002417;28;20208;-51
2022/05/20 09:56:19;;;;;;;174.27;48.80;;;;;;;;;;5002236;28;20208;-52
2022/05/20 09:58:58;;;;;;;136.52;44.17;;;;;;;;;;5001483;28;20597;-50
2022/05/20 10:01:25;;;;;;;156.60;47.55;;;;;;;;;;4999733;28;20468;-53
2022/05/20 10:03:52;;;;;;;129.27;41.03;;;;;;;;;;4997193;28;20212;-51
2022/05/20 10:06:24;;;;;;;158.68;46.63;;;;;;;;;;5005985;28;20216;-50
2022/05/20 10:09:12;;;;;;;174.48;53.05;;;;;;;;;;4997313;28;20189;-52
2022/05/20 10:11:38;;;;;;;271.30;74.40;;;;;;;;;;4992141;28;20278;-52
2022/05/20 10:14:11;;;;;;;181.68;53.17;;;;;;;;;;4997023;28;20674;-49
2022/05/20 10:16:56;;;;;;;239.23;68.88;;;;;;;;;;4988963;28;20229;-52
2022/05/20 10:19:45;;;;;;;143.77;46.85;;;;;;;;;;5006244;28;20672;-52
2022/05/20 10:22:18;;;;;;;155.77;48.47;;;;;;;;;;5007934;28;20209;-50
2022/05/20 10:24:57;;;;;;;235.93;71.88;;;;;;;;;;4995638;28;20248;-52
2022/05/20 10:27:33;;;;;;;125.47;42.65;;;;;;;;;;5003266;28;20311;-50
2022/05/20 10:32:49;;;;;;;295.58;75.50;;;;;;;;;;4996989;28;20211;-50
2022/05/20 10:35:19;;;;;;;253.32;66.55;;;;;;;;;;4991190;28;20185;-51
2022/05/20 10:38:03;;;;;;;221.73;63.42;;;;;;;;;;4994469;28;20250;-52
2022/05/20 10:40:50;;;;;;;212.38;57.53;;;;;;;;;;4996035;28;20220;-53
2022/05/20 10:43:26;;;;;;;172.90;48.88;;;;;;;;;;4995561;28;20217;-52
2022/05/20 10:48:50;;;;;;;148.60;44.92;;;;;;;;;;4995117;28;20347;-52
2022/05/20 10:51:39;;;;;;;204.38;53.20;;;;;;;;;;5006714;28;20456;-52
2022/05/20 10:54:14;;;;;;;135.40;44.80;;;;;;;;;;4995899;28;20382;-50
2022/05/20 10:56:49;;;;;;;143.93;46.70;;;;;;;;;;5003917;28;20227;-52
2022/05/20 10:59:14;;;;;;;134.52;42.38;;;;;;;;;;4998438;28;20176;-53
2022/05/20 11:01:57;;;;;;;119.53;41.97;;;;;;;;;;5000601;28;20216;-50
2022/05/20 11:04:29;;;;;;;198.07;56.95;;;;;;;;;;4996783;28;20200;-52
2022/05/20 11:07:17;;;;;;;195.05;68.15;;;;;;;;;;4993939;28;20715;-49
2022/05/20 11:09:58;;;;;;;117.03;42.67;;;;;;;;;;4995064;28;20234;-51
2022/05/20 11:12:28;;;;;;;142.07;54.08;;;;;;;;;;4996354;28;20753;-52
2022/05/20 11:14:54;;;;;;;187.10;58.60;;;;;;;;;;4994036;28;20321;-52
2022/05/20 11:17:20;;;;;;;187.13;54.45;;;;;;;;;;4993211;28;20270;-52
2022/05/20 11:20:04;;;;;;;124.82;45.65;;;;;;;;;;4994649;28;20304;-51
2022/05/20 11:22:45;;;;;;;144.88;49.72;;;;;;;;;;4997365;28;20217;-52
2022/05/20 11:25:30;;;;;;;268.90;86.38;;;;;;;;;;4987642;28;20290;-52
2022/05/20 11:28:08;;;;;;;231.13;73.18;;;;;;;;;;4996065;28;20647;-52
2022/05/20 11:30:46;;;;;;;236.02;75.00;;;;;;;;;;4992457;28;20820;-52
2022/05/20 11:33:31;;;;;;;215.35;72.88;;;;;;;;;;4999383;28;20204;-52
2022/05/20 11:36:00;;;;;;;238.07;78.28;;;;;;;;;;5003734;28;20228;-52
2022/05/20 11:38:35;;;;;;;135.88;55.55;;;;;;;;;;5004823;28;20200;-52
2022/05/20 11:41:22;;;;;;;171.15;64.03;;;;;;;;;;4999993;28;20246;-53
2022/05/20 11:43:48;;;;;;;200.07;63.72;;;;;;;;;;4992491;28;20220;-52
2022/05/20 11:46:20;;;;;;;206.32;68.30;;;;;;;;;;5000457;28;20223;-52
2022/05/20 11:48:46;;;;;;;210.85;67.35;;;;;;;;;;4996495;28;20643;-52
2022/05/20 11:51:30;;;;;;;203.35;74.80;;;;;;;;;;4996916;28;20245;-52
2022/05/20 11:54:02;;;;;;;143.07;55.85;;;;;;;;;;4998113;28;20304;-51
2022/05/20 11:56:31;;;;;;;157.48;58.42;;;;;;;;;;5002010;28;20208;-52
2022/05/20 11:59:01;;;;;;;150.77;53.50;;;;;;;;;;4996547;28;20328;-52
2022/05/20 12:01:27;;;;;;;172.15;61.97;;;;;;;;;;4993140;28;21002;-51
2022/05/20 12:04:07;;;;;;;169.73;61.83;;;;;;;;;;4996129;28;20216;-51
2022/05/20 12:06:35;;;;;;;155.80;61.88;;;;;;;;;;4995798;28;20220;-51
2022/05/20 12:09:02;;;;;;;158.30;65.70;;;;;;;;;;5001066;28;20213;-53
2022/05/20 12:11:30;;;;;;;213.13;78.70;;;;;;;;;;4997548;28;20188;-52
2022/05/20 12:14:19;;;;;;;220.35;82.00;;;;;;;;;;4993281;28;20573;-51
2022/05/20 12:16:54;;;;;;;205.27;85.70;;;;;;;;;;4993403;28;20227;-53
2022/05/20 12:25:21;;;;;;;229.25;88.03;;;;;;;;;;5001604;28;20215;-52
2022/05/20 12:28:00;;;;;;;263.13;94.65;;;;;;;;;;4983982;28;20244;-53
2022/05/20 12:30:36;;;;;;;218.80;95.28;;;;;;;;;;4990085;28;20220;-52
2022/05/20 12:33:20;;;;;;;168.40;92.13;;;;;;;;;;4996152;28;20238;-53
2022/05/20 12:36:06;;;;;;;190.75;102.28;;;;;;;;;;5006705;28;20300;-52
2022/05/20 12:38:32;;;;;;;242.63;101.43;;;;;;;;;;4990912;28;20192;-53
2022/05/20 12:40:58;;;;;;;164.07;91.13;;;;;;;;;;5000615;28;20228;-52
2022/05/20 12:43:46;;;;;;;191.35;97.07;;;;;;;;;;4987164;28;20300;-52
2022/05/20 12:46:16;;;;;;;259.45;118.68;;;;;;;;;;4990972;28;20209;-53
2022/05/20 12:48:41;;;;;;;193.85;111.75;;;;;;;;;;4998411;28;20692;-52
2022/05/20 12:51:10;;;;;;;154.63;102.10;;;;;;;;;;4997504;28;20215;-53
2022/05/20 12:53:38;;;;;;;167.43;102.78;;;;;;;;;;4995343;28;20590;-52
2022/05/20 12:56:04;;;;;;;199.20;124.55;;;;;;;;;;5000935;28;20960;-52
2022/05/20 12:58:32;;;;;;;193.70;121.65;;;;;;;;;;4995587;28;20216;-53
2022/05/20 13:01:00;;;;;;;244.50;144.02;;;;;;;;;;4998785;28;20819;-53
2022/05/20 13:03:41;;;;;;;239.82;141.68;;;;;;;;;;5000136;28;20208;-52
2022/05/20 13:06:10;;;;;;;153.88;110.90;;;;;;;;;;4994963;28;20396;-52
2022/05/20 13:08:45;;;;;;;205.35;136.70;;;;;;;;;;5001495;28;20594;-54
2022/05/20 13:11:12;;;;;;;200.07;149.00;;;;;;;;;;5004250;28;20176;-53
2022/05/20 13:13:38;;;;;;;208.98;142.70;;;;;;;;;;5004094;28;20493;-51
2022/05/20 13:16:05;;;;;;;208.52;143.73;;;;;;;;;;4999177;28;20320;-53
2022/05/20 13:18:32;;;;;;;193.68;151.43;;;;;;;;;;5002036;28;20311;-53
2022/05/20 13:21:00;;;;;;;157.05;132.63;;;;;;;;;;5009633;28;20321;-53
2022/05/20 13:23:29;;;;;;;170.63;153.45;;;;;;;;;;5002698;28;20191;-53
2022/05/20 13:25:55;;;;;;;185.02;165.27;;;;;;;;;;5004253;28;20279;-51
2022/05/20 13:28:22;;;;;;;211.48;189.23;;;;;;;;;;5004230;28;20350;-51
2022/05/20 13:30:48;;;;;;;207.73;181.80;;;;;;;;;;5011940;28;20228;-51
2022/05/20 13:33:14;;;;;;;201.10;165.70;;;;;;;;;;5005648;28;20317;-51
2022/05/20 13:35:50;;;;;;;188.73;144.20;;;;;;;;;;5009494;28;20226;-51
2022/05/20 13:38:16;;;;;;;178.82;144.07;;;;;;;;;;5006405;28;20224;-51
2022/05/20 13:40:43;;;;;;;205.85;144.20;;;;;;;;;;5004455;28;20205;-51
2022/05/20 13:43:13;;;;;;;198.77;124.82;;;;;;;;;;4996621;28;20227;-51
2022/05/20 13:51:26;;;;;;;184.55;140.48;;;;;;;;;;5000867;28;20545;-51
2022/05/20 13:53:53;;;;;;;185.07;159.02;;;;;;;;;;5009472;28;20315;-51
2022/05/20 13:56:30;;;;;;;216.38;183.57;;;;;;;;;;5009199;28;20196;-51
2022/05/20 13:58:56;;;;;;;194.65;168.95;;;;;;;;;;5010526;28;20216;-50
2022/05/20 14:01:22;;;;;;;181.85;164.68;;;;;;;;;;5002857;28;20452;-50
2022/05/20 14:03:49;;;;;;;397.48;199.93;;;;;;;;;;4970118;28;20290;-50
2022/05/20 14:06:17;;;;;;;233.00;160.43;;;;;;;;;;4997240;28;20679;-52
2022/05/20 14:09:02;;;;;;;247.18;169.00;;;;;;;;;;4979351;28;22246;-52
2022/05/20 14:11:40;;;;;;;246.38;166.88;;;;;;;;;;4990689;28;20280;-52
2022/05/20 14:14:14;;;;;;;243.63;158.27;;;;;;;;;;4994451;28;20219;-52
2022/05/20 14:16:42;;;;;;;273.65;158.02;;;;;;;;;;4975128;28;20283;-52
2022/05/20 14:19:16;;;;;;;169.02;149.85;;;;;;;;;;4990721;28;20224;-52
2022/05/20 14:21:43;;;;;;;363.80;221.57;;;;;;;;;;4998473;28;20239;-53
2022/05/20 14:24:11;;;;;;;228.18;174.65;;;;;;;;;;4987920;28;20220;-52
2022/05/20 14:26:45;;;;;;;329.02;172.63;;;;;;;;;;4996329;28;20548;-52
2022/05/20 14:29:32;;;;;;;188.18;136.98;;;;;;;;;;4997149;28;20635;-52
2022/05/20 14:32:02;;;;;;;280.60;177.75;;;;;;;;;;5004999;28;20221;-52
2022/05/20 14:34:49;;;;;;;242.50;170.15;;;;;;;;;;4994248;28;20298;-52
2022/05/20 14:37:25;;;;;;;366.92;215.00;;;;;;;;;;4989647;28;20327;-52
2022/05/20 14:39:54;;;;;;;213.18;178.23;;;;;;;;;;4995916;28;21614;-52
2022/05/20 14:42:32;;;;;;;385.42;253.50;;;;;;;;;;4998825;28;20318;-52
2022/05/20 14:45:02;;;;;;;236.18;212.90;;;;;;;;;;5002305;28;20223;-52
2022/05/20 14:47:51;;;;;;;283.08;218.10;;;;;;;;;;5001125;28;20208;-52
2022/05/20 14:50:20;;;;;;;373.27;246.13;;;;;;;;;;4997407;28;20224;-52
2022/05/20 14:52:54;;;;;;;267.23;238.57;;;;;;;;;;4997908;28;20212;-52
2022/05/20 14:55:26;;;;;;;259.25;233.15;;;;;;;;;;4988775;28;20663;-52